Tiempo atmosférico en la estación meteorológica de Aguilar De Campoo, Palencia (910 m.)



Fecha
DESCASC
Temp. máxima en grados centígrados (hora)
DESCASC
Temp. mínima en grados centígrados (hora)
DESCASC
Temp. media en grados centígrados
DESCASC
Racha de viento máxima en m/sg (hora)
DESCASC
Velocidad máxima media en intervalos de 10 minutos(hora)
DESCASC
Precipitaciones diarias en mm
DESCASC
Precipitaciones de 00:00 a 06:00 en mm
DESCASC
Precipitaciones de 06:00 a 12:00 en mm
DESCASC
Precipitaciones de 12:00 a 18:00 en mm
DESCASC
Precipitaciones de 18:00 a 24:00 en mm
DESCASC
15-08-2019 22 (14:40) 11.8 (05:20) 16.9 10.56 (17:10) 5.83 (18:20) 0 0 0 0 0
14-08-2019 28.3 (15:30) 6.9 (00:00) 17.6 11.11 (20:30) 5.28 (19:00) 0 0 0 0 0
13-08-2019 22.3 (16:50) 5.7 (00:00) 14 9.72 (17:40) 4.72 (17:50) 0 0 0 0 0
12-08-2019 19 (16:30) 5 (00:00) 12 11.39 (16:50) 6.39 (16:50) 0 0 0 0 0
11-08-2019 18.8 (14:00) 10.7 (00:00) 14.7 11.11 (18:40) 6.39 (18:30) 4.8 3.6 1.2 0 0
10-08-2019 25 (16:00) 12.2 (00:00) 18.6 11.39 (18:30) 6.39 (17:50) 0 0 0 0 0
09-08-2019 25.6 (16:30) 16.4 (00:00) 21 13.33 (14:00) 6.67 (14:00) 1 0 1 0 0
08-08-2019 27.3 (17:00) 16.1 (00:00) 21.7 11.67 (18:50) 5.83 (15:40) 0 0 0 0 0
07-08-2019 24.6 (15:30) 14.3 (00:00) 19.5 10.83 (17:10) 6.11 (17:20) 0.2 0 0 0 0.2
06-08-2019 29.3 (15:10) 10.6 (00:00) 19.9 10 (23:30) 5.83 (18:50) 0 0 0 0 0
05-08-2019 29.7 (15:50) 10.5 (00:00) 20.1 10.83 (17:30) 6.39 (17:30) 0 0 0 0 0
04-08-2019 30.6 (16:30) 11.1 (00:00) 20.9 12.22 (19:30) 6.94 (18:50) 0 0 0 0 0
03-08-2019 31 (15:40) 9.5 (00:00) 20.3 9.17 (19:50) 5 (17:30) 0 0 0 0 0
02-08-2019 28 (16:30) 11.5 (00:00) 19.8 9.17 (18:00) 5 (16:40) 0 0 0 0 0
01-08-2019 22.1 (17:00) 11.3 (00:00) 16.7 12.5 (19:40) 6.67 (19:20) 0 0 0 0 0
31-07-2019 22.4 (17:00) 8.4 (00:00) 15.4 10.83 (14:30) 5 (16:30) 0 0 0 0 0
30-07-2019 19.6 (15:20) 10.1 (00:00) 14.9 11.11 (16:40) 5.56 (16:50) 0 0 0 0 0
29-07-2019 25.3 (17:40) 7.9 (00:00) 16.6 12.5 (19:20) 7.22 (19:40) 0 0 0 0 0
28-07-2019 23.7 (18:30) 6.3 (00:00) 15 6.39 (14:20) 3.06 (12:10) 0 0 0 0 0
27-07-2019 16.1 (18:40) 11.1 (00:00) 13.6 9.17 (19:30) 5 (19:20) 17.8 8.2 5.4 4.2 0
26-07-2019 19.1 (14:30) 12.7 (00:00) 15.9 10.83 (16:10) 6.67 (16:00) 0 0 0 0 0
25-07-2019 32 (16:20) 14.7 (00:00) 23.3 12.22 (20:50) 6.94 (20:50) 0 0 0 0 0
24-07-2019 33.1 (18:00) 13.9 (00:00) 23.5 10 (14:50) 4.72 (15:10) 0 0 0 0 0
23-07-2019 32.6 (17:50) 13.4 (00:00) 23 11.94 (14:10) 6.67 (22:20) 0.6 0 0 0 0.6
22-07-2019 34.4 (16:40) 14.3 (00:00) 24.4 10.83 (21:10) 4.17 (21:10) 6.4 0 0 0 6.4
21-07-2019 29 (17:50) 14.4 (00:00) 21.7 12.22 (19:30) 6.39 (19:20) 0 0 0 0 0
20-07-2019 27.6 (15:20) 12.2 (00:00) 19.9 12.78 (18:00) 6.94 (18:10) 0 0 0 0 0
19-07-2019 32.1 (17:30) 10.2 (00:00) 21.1 10 (22:00) 5.28 (22:00) 0 0 0 0 0

Gráficas

Temp. máximas Temp. mínimas Temp. medias Precipitaciones Rachas de viento máximas Velocidades máximas media en intervalos de 10 minutos

Datos horarios

Fecha y hora oficial Temperatura (ºC) Velocidad del viento (km/h) Dirección del viento Racha (km/h) Dirección de racha Precipitación (mm) Presión (hPa) Tendencia (hPa) Humedad (%)
2019-08-17 23:00:00 20.4 8 Sur 23 Sudeste 0 -- -- 74
2019-08-17 22:00:00 22.5 5 Sur 13 Sudeste 0 -- -- 60
2019-08-17 21:00:00 27.4 0 Calma 22 Norte 0 -- -- 37
2019-08-17 20:00:00 29.7 12 Norte 27 Norte 0 -- -- 33
2019-08-17 19:00:00 30.9 14 Norte 28 Noroeste 0 -- -- 28
2019-08-17 18:00:00 31.4 13 Noroeste 41 Norte 0 -- -- 28
2019-08-17 17:00:00 31.6 13 Noroeste 35 Oeste 0 -- -- 29
2019-08-17 16:00:00 31 15 Noroeste 31 Norte 0 -- -- 30
2019-08-17 15:00:00 30.4 10 Noroeste 34 Norte 0 -- -- 34
2019-08-17 14:00:00 28.2 12 Noroeste 23 Noroeste 0 -- -- 39
2019-08-17 13:00:00 25.6 6 Noroeste 16 Noroeste 0 -- -- 44
2019-08-17 12:00:00 22.8 4 Oeste 10 Noroeste 0 -- -- 49
2019-08-17 11:00:00 20 4 Oeste 7 Noroeste 0 -- -- 59
2019-08-17 10:00:00 16.2 3 Sudoeste 5 Sudoeste 0 -- -- 80
2019-08-17 09:00:00 12 0 Calma 8 Este 0 -- -- 92
2019-08-17 08:00:00 8.9 3 Este 6 Este 0 -- -- 95
2019-08-17 07:00:00 9.2 0 Calma 6 Sudeste 0 -- -- 92
2019-08-17 06:00:00 10.3 0 Calma 13 Este 0 -- -- 91
2019-08-17 05:00:00 11.4 4 Este 15 Este 0 -- -- 92
2019-08-17 04:00:00 12.3 4 Este 12 Este 0 -- -- 89
2019-08-17 03:00:00 13 6 Este 13 Este 0 -- -- 88
2019-08-17 02:00:00 13.8 3 Nordeste 9 Este 0 -- -- 80
2019-08-17 01:00:00 15.6 2 Norte 14 Sur 0 -- -- 74
2019-08-17 00:00:00 17.2 9 Sur 22 Sur 0 -- -- 72
2019-08-16 23:00:00 18.3 8 Sudeste 19 Sur 0 -- -- 67
2019-08-16 22:00:00 19.7 10 Sur 27 Sudeste 0 -- -- 68
2019-08-16 21:00:00 20.8 11 Sudeste 30 Sudeste 0 -- -- 68
2019-08-16 20:00:00 24 18 Sur 33 Sur 0 -- -- 60
2019-08-16 19:00:00 27.6 16 Sudeste 33 Sur 0 -- -- 48
2019-08-16 18:00:00 31.6 9 Noroeste 21 Norte 0 -- -- 28
2019-08-16 17:00:00 31.5 10 Noroeste 33 Oeste 0 -- -- 32
2019-08-16 16:00:00 31.1 7 Noroeste 31 Noroeste 0 -- -- 30
2019-08-16 15:00:00 29.9 8 Oeste 23 Oeste 0 -- -- 34
2019-08-16 14:00:00 28.8 9 Noroeste 25 Norte 0 -- -- 37
2019-08-16 13:00:00 26.6 9 Noroeste 19 Oeste 0 -- -- 44
2019-08-16 12:00:00 23.5 4 Norte 10 Sudoeste 0 -- -- 55
2019-08-16 11:00:00 20.1 6 Noroeste 9 Oeste 0 -- -- 68
2019-08-16 10:00:00 15.8 3 Sudoeste 8 Sur 0 -- -- 85
2019-08-16 09:00:00 12.8 2 Sur 12 Este 0 -- -- 94
2019-08-16 08:00:00 10.5 0 Calma 10 Este 0 -- -- 97
2019-08-16 07:00:00 11.5 3 Este 7 Este 0 -- -- 98
2019-08-16 06:00:00 12 2 Este 5 Sudoeste 0 -- -- 97
2019-08-16 05:00:00 12.2 3 Sur 9 Sudeste 0 -- -- 97
2019-08-16 04:00:00 12.5 4 Sudeste 10 Este 0 -- -- 95
2019-08-16 03:00:00 12.6 0 Calma 8 Sudeste 0 -- -- 95
2019-08-16 02:00:00 12.9 4 Sudeste 9 Sudeste 0 -- -- 92
2019-08-16 01:00:00 13.8 6 Sur 15 Sur 0 -- -- 91
2019-08-16 00:00:00 13.9 8 Sur 26 Sur 0 -- -- 92
2019-08-15 23:00:00 14.3 14 Sur 26 Sudeste 0 -- -- 91
2019-08-15 22:00:00 15.2 8 Sur 23 Sudeste 0 -- -- 86
2019-08-15 21:00:00 16.4 14 Sur 31 Sur 0 -- -- 82
2019-08-15 20:00:00 17.9 18 Sudeste 36 Sur 0 -- -- 76
2019-08-15 19:00:00 20 20 Sur 37 Sur 0 -- -- 67
2019-08-15 18:00:00 21.1 17 Sudeste 38 Sudeste 0 -- -- 64
2019-08-15 17:00:00 21.7 18 Sur 35 Sur 0 -- -- 62
2019-08-15 16:00:00 21.6 20 Sur 36 Sudeste 0 -- -- 61
2019-08-15 15:00:00 21.8 17 Sudeste 35 Sudeste 0 -- -- 60
2019-08-15 14:00:00 21.6 12 Sur 26 Sudeste 0 -- -- 59
2019-08-15 13:00:00 19.5 10 Sur 24 Sur 0 -- -- 66
2019-08-15 12:00:00 18.2 12 Sur 27 Sudoeste 0 -- -- 70
2019-08-15 11:00:00 17.1 13 Sur 25 Sur 0 -- -- 77
2019-08-15 10:00:00 15.7 12 Sur 22 Sur 0 -- -- 84
2019-08-15 09:00:00 14.5 9 Sudeste 15 Sudeste 0 -- -- 93
2019-08-15 08:00:00 12.6 5 Sudeste 10 Sudeste 0 -- -- 98
2019-08-15 07:00:00 12.3 4 Este 9 Este 0 -- -- 98
2019-08-15 06:00:00 11.8 6 Este 12 Este 0 -- -- 97
2019-08-15 05:00:00 12 8 Este 14 Este 0 -- -- 94
2019-08-15 04:00:00 13 9 Este 15 Este 0 -- -- 93
2019-08-15 03:00:00 14.2 5 Sudeste 10 Sur 0 -- -- 92
2019-08-15 02:00:00 14.9 10 Sur 18 Sudoeste 0 -- -- 93
2019-08-15 01:00:00 14.9 7 Sur 21 Sur 0 -- -- 90
2019-08-15 00:00:00 15.5 13 Sur 26 Sur 0 -- -- 88
2019-08-14 23:00:00 15.7 13 Sur 28 Sur 0 -- -- 86
2019-08-14 22:00:00 16.8 14 Sur 31 Sudeste 0 -- -- 79
2019-08-14 21:00:00 19.3 16 Sudeste 40 Sudeste 0 -- -- 69
2019-08-14 20:00:00 22 17 Sur 31 Sur 0 -- -- 59
2019-08-14 19:00:00 24.1 19 Sur 31 Sudeste 0 -- -- 53
2019-08-14 18:00:00 25.9 17 Sur 32 Este 0 -- -- 48
2019-08-14 17:00:00 26 14 Sudeste 32 Sur 0 -- -- 49
2019-08-14 16:00:00 28 9 Sur 19 Sudoeste 0 -- -- 36
2019-08-14 15:00:00 27.3 8 Sudoeste 21 Sudoeste 0 -- -- 37
2019-08-14 14:00:00 26 5 Norte 17 Sudoeste 0 -- -- 41
2019-08-14 13:00:00 23.2 6 Este 14 Sudeste 0 -- -- 46
2019-08-14 12:00:00 20.8 5 Sur 12 Sudeste 0 -- -- 53
2019-08-14 11:00:00 17.8 4 Sudoeste 8 Sudoeste 0 -- -- 61
2019-08-14 10:00:00 14.3 2 Oeste 5 Oeste 0 -- -- 82
2019-08-14 09:00:00 10.6 0 Calma 7 Este 0 -- -- 95
2019-08-14 08:00:00 7.2 2 Este 10 Este 0 -- -- 96
2019-08-14 07:00:00 7.2 0 Calma 14 Este 0 -- -- 95
2019-08-14 06:00:00 7.6 0 Calma 13 Este 0 -- -- 94
2019-08-14 05:00:00 8.8 9 Este 13 Este 0 -- -- 95
2019-08-14 04:00:00 9.5 6 Este 13 Este 0 -- -- 95
2019-08-14 03:00:00 9.9 3 Nordeste 11 Este 0 -- -- 94
2019-08-14 02:00:00 10.4 7 Este 10 Este 0 -- -- 92
2019-08-14 01:00:00 11.8 0 Calma 9 Sudeste 0 -- -- 87
2019-08-14 00:00:00 13.2 7 Sur 19 Sudeste 0 -- -- 86
2019-08-13 23:00:00 13.8 5 Sudeste 17 Sudeste 0 -- -- 82
2019-08-13 22:00:00 15.3 10 Sudeste 21 Sudeste 0 -- -- 77
2019-08-13 21:00:00 17.4 8 Sudeste 23 Sudeste 0 -- -- 69
2019-08-13 20:00:00 19.2 12 Sudeste 30 Sudeste 0 -- -- 61
2019-08-13 19:00:00 20.5 15 Sudeste 33 Sudeste 0 -- -- 54
2019-08-13 18:00:00 21.4 17 Sur 35 Sur 0 -- -- 51
2019-08-13 17:00:00 22 14 Sur 29 Sudeste 0 -- -- 46
2019-08-13 16:00:00 21.9 6 Noroeste 17 Sur 0 -- -- 43
2019-08-13 15:00:00 20.4 7 Sudoeste 18 Sur 0 -- -- 47
2019-08-13 14:00:00 19.2 6 Oeste 20 Sur 0 -- -- 51
2019-08-13 13:00:00 17.1 8 Sudoeste 20 Sur 0 -- -- 56
2019-08-13 12:00:00 15.7 9 Sur 24 Sudeste 0 -- -- 59
2019-08-13 11:00:00 14 6 Sudoeste 16 Sur 0 -- -- 69
2019-08-13 10:00:00 11.3 5 Sur 13 Sur 0 -- -- 83
2019-08-13 09:00:00 7.9 2 Sudeste 11 Este 0 -- -- 93
2019-08-13 08:00:00 5.7 3 Este 8 Este 0 -- -- 96
2019-08-13 07:00:00 6.1 6 Este 12 Este 0 -- -- 94
2019-08-13 06:00:00 7.6 4 Sudeste 9 Sudeste 0 -- -- 94
2019-08-13 05:00:00 8.3 6 Sudeste 8 Sudeste 0 -- -- 93
2019-08-13 04:00:00 9.4 4 Sudeste 8 Sudeste 0 -- -- 92
2019-08-13 03:00:00 9.3 4 Sur 15 Sur 0 -- -- 91
2019-08-13 02:00:00 9.9 5 Sudeste 23 Sur 0 -- -- 87
2019-08-13 01:00:00 10.5 13 Sudeste 28 Sur 0 -- -- 86
2019-08-13 00:00:00 10.8 10 Sur 23 Sur 0 -- -- 83
2019-08-12 23:00:00 10.9 9 Sudeste 18 Sudeste 0 -- -- 83
2019-08-12 22:00:00 11.3 12 Sur 29 Sur 0 -- -- 82
2019-08-12 21:00:00 12.3 13 Sur 32 Sur 0 -- -- 77
2019-08-12 20:00:00 13.5 16 Sur 31 Sudeste 0 -- -- 71
2019-08-12 19:00:00 15.5 15 Sudeste 39 Sudeste 0 -- -- 64
2019-08-12 18:00:00 16.9 14 Sudeste 36 Sudeste 0 -- -- 59
2019-08-12 17:00:00 17.6 22 Sur 41 Sur 0 -- -- 57
2019-08-12 16:00:00 18.8 16 Sudeste 37 Sudeste 0 -- -- 52
2019-08-12 15:00:00 17.6 21 Sur 39 Sur 0 -- -- 53
2019-08-12 14:00:00 17.8 6 Sudeste 23 Este 0 -- -- 51
2019-08-12 13:00:00 15.7 4 Oeste 12 Noroeste 0 -- -- 57
2019-08-12 12:00:00 15.4 6 Sur 14 Sur 0 -- -- 61
2019-08-12 11:00:00 13 5 Noroeste 10 Oeste 0 -- -- 71
2019-08-12 10:00:00 10.8 5 Sudoeste 9 Oeste 0 -- -- 84
2019-08-12 09:00:00 7.7 0 Calma 10 Este 0 -- -- 96
2019-08-12 08:00:00 5.2 5 Este 12 Este 0 -- -- 97
2019-08-12 07:00:00 5.3 3 Este 8 Este 0 -- -- 95
2019-08-12 06:00:00 6.3 0 Calma 12 Este 0 -- -- 95
2019-08-12 05:00:00 6.9 5 Este 10 Este 0 -- -- 94
2019-08-12 04:00:00 7.9 3 Nordeste 7 Este 0 -- -- 91
2019-08-12 03:00:00 9.2 4 Sudeste 11 Sur 0 -- -- 90
2019-08-12 02:00:00 10.2 6 Sudeste 16 Sur 0 -- -- 86
2019-08-12 01:00:00 11.1 12 Sur 23 Sur 0 -- -- 79
2019-08-12 00:00:00 11 11 Sur 24 Sur 0 -- -- 80
2019-08-11 23:00:00 11.5 10 Sur 22 Sudeste 0 -- -- 79
2019-08-11 22:00:00 11.5 10 Sur 27 Sur 0 -- -- 82
2019-08-11 21:00:00 12.2 6 Sudeste 31 Sur 0 -- -- 79
2019-08-11 20:00:00 13.9 10 Sudeste 32 Sur 0 -- -- 73
2019-08-11 19:00:00 15.7 19 Sur 40 Sudeste 0 -- -- 71
2019-08-11 18:00:00 17 17 Sudeste 38 Sur 0 -- -- 71
2019-08-11 17:00:00 16.8 16 Sudeste 35 Sudeste 0 -- -- 76
2019-08-11 16:00:00 16.4 16 Sur 27 Sur 0 -- -- 72
2019-08-11 15:00:00 16.2 8 Sudeste 31 Sudeste 0 -- -- 65
2019-08-11 14:00:00 18.8 10 Sur 20 Sur 0 -- -- 64
2019-08-11 13:00:00 16 4 Oeste 21 Sur 0 -- -- 75
2019-08-11 12:00:00 14.8 11 Sur 19 Sur 0 -- -- 79
2019-08-11 11:00:00 13.7 9 Sur 29 Este 0 -- -- 86
2019-08-11 10:00:00 13.2 12 Sur 21 Sur 0 -- -- 88
2019-08-11 09:00:00 11.6 6 Este 10 Sur 0 -- -- 93
2019-08-11 08:00:00 10.8 7 Sur 14 Sur 0.2 -- -- 93
2019-08-11 07:00:00 11 3 Sudeste 7 Este 1 -- -- 94
2019-08-11 06:00:00 11.1 3 Sur 6 Nordeste 2.8 -- -- 92
2019-08-11 05:00:00 11.6 3 Sudeste 17 Sudeste 0.6 -- -- 88
2019-08-11 04:00:00 12.5 9 Sudeste 20 Sudeste 0.2 -- -- 78
2019-08-11 03:00:00 13.9 8 Sur 15 Sudeste 0 -- -- 62
2019-08-11 02:00:00 13.4 5 Sur 15 Sudeste 0 -- -- 71
2019-08-11 01:00:00 12.8 5 Sur 18 Sudeste 0 -- -- 75
2019-08-11 00:00:00 12.4 5 Sudeste 18 Este 0 -- -- 76
2019-08-10 23:00:00 12.6 8 Sudeste 19 Sudeste 0 -- -- 78
2019-08-10 22:00:00 12.9 9 Sudeste 27 Sudeste 0 -- -- 82
2019-08-10 21:00:00 14 12 Sur 33 Sudeste 0 -- -- 80
2019-08-10 20:00:00 15.7 16 Sudeste 38 Sudeste 0 -- -- 76
2019-08-10 19:00:00 17.9 18 Sur 41 Sudeste 0 -- -- 70
2019-08-10 18:00:00 20.5 20 Sur 41 Sudeste 0 -- -- 61
2019-08-10 17:00:00 22.4 23 Sur 41 Sur 0 -- -- 56
2019-08-10 16:00:00 25 7 Noroeste 18 Oeste 0 -- -- 28
2019-08-10 15:00:00 23.7 6 Sur 19 Sudoeste 0 -- -- 37
2019-08-10 14:00:00 22.3 10 Oeste 20 Oeste 0 -- -- 40
2019-08-10 13:00:00 21.4 5 Sur 19 Oeste 0 -- -- 44
2019-08-10 12:00:00 19.9 5 Sudoeste 18 Sudoeste 0 -- -- 51
2019-08-10 11:00:00 18.4 3 Sur 12 Sur 0 -- -- 57
2019-08-10 10:00:00 16.6 3 Sudoeste 8 Sudeste 0 -- -- 68
2019-08-10 09:00:00 14.5 3 Sudoeste 10 Este 0 -- -- 78
2019-08-10 08:00:00 12.3 9 Este 13 Este 0 -- -- 85
2019-08-10 07:00:00 13.1 3 Sur 11 Este 0 -- -- 83
2019-08-10 06:00:00 13.4 0 Calma 10 Este 0 -- -- 82
2019-08-10 05:00:00 14.2 5 Este 14 Sudeste 0 -- -- 77
2019-08-10 04:00:00 15.1 5 Noroeste 16 Noroeste 0 -- -- 77
2019-08-10 03:00:00 15.4 10 Noroeste 18 Noroeste 0 -- -- 73
2019-08-10 02:00:00 15.4 2 Nordeste 11 Noroeste 0 -- -- 69
2019-08-10 01:00:00 15.6 8 Noroeste 15 Noroeste 0 -- -- 65
2019-08-10 00:00:00 16.4 4 Noroeste 14 Norte 0 -- -- 65
2019-08-09 23:00:00 18.5 8 Norte 17 Noroeste 0 -- -- 57
2019-08-09 22:00:00 19.6 7 Norte 15 Noroeste 0 -- -- 52
2019-08-09 21:00:00 20.7 9 Norte 23 Noroeste 0 -- -- 50
2019-08-09 20:00:00 21.9 14 Norte 33 Norte 0 -- -- 47
2019-08-09 19:00:00 23 15 Norte 39 Norte 0 -- -- 44
2019-08-09 18:00:00 23.4 17 Noroeste 42 Noroeste 0 -- -- 41
2019-08-09 17:00:00 25.5 17 Norte 41 Noroeste 0 -- -- 36
2019-08-09 16:00:00 24.7 17 Noroeste 44 Norte 0 -- -- 35
2019-08-09 15:00:00 25.1 21 Norte 48 Norte 0 -- -- 36
2019-08-09 14:00:00 23.5 24 Norte 48 Norte 0 -- -- 43
2019-08-09 13:00:00 20.5 14 Noroeste 39 Norte 0 -- -- 64
2019-08-09 12:00:00 18.9 14 Noroeste 31 Norte 0 -- -- 78
2019-08-09 11:00:00 17.7 14 Norte 39 Norte 0.6 -- -- 92
2019-08-09 10:00:00 18.1 9 Norte 29 Noroeste 0.4 -- -- 93
2019-08-09 09:00:00 19.3 11 Noroeste 32 Oeste 0 -- -- 82
2019-08-09 08:00:00 19 8 Noroeste 34 Norte 0 -- -- 80
2019-08-09 07:00:00 19.3 8 Noroeste 31 Noroeste 0 -- -- 79
2019-08-09 06:00:00 19.7 11 Noroeste 24 Noroeste 0 -- -- 75
2019-08-09 05:00:00 19.4 5 Noroeste 12 Oeste 0 -- -- 75
2019-08-09 04:00:00 20.6 5 Noroeste 15 Nordeste 0 -- -- 71
2019-08-09 03:00:00 21.2 7 Norte 22 Norte 0 -- -- 69
2019-08-09 02:00:00 21.6 6 Noroeste 27 Noroeste 0 -- -- 68
2019-08-09 01:00:00 21.8 15 Norte 28 Norte 0 -- -- 69
2019-08-09 00:00:00 21.9 12 Norte 27 Norte 0 -- -- 71
2019-08-08 23:00:00 23.1 10 Norte 21 Norte 0 -- -- 65
2019-08-08 22:00:00 24.2 9 Norte 30 Noroeste 0 -- -- 60
2019-08-08 21:00:00 25.3 13 Noroeste 37 Noroeste 0 -- -- 56
2019-08-08 20:00:00 26.4 15 Norte 39 Noroeste 0 -- -- 54
2019-08-08 19:00:00 26.4 15 Norte 42 Noroeste 0 -- -- 57
2019-08-08 18:00:00 26.1 12 Norte 34 Norte 0 -- -- 58
2019-08-08 17:00:00 27.3 13 Norte 36 Norte 0 -- -- 56
2019-08-08 16:00:00 25.4 11 Norte 39 Norte 0 -- -- 62
2019-08-08 15:00:00 22.7 10 Noroeste 31 Norte 0 -- -- 74
2019-08-08 14:00:00 21.4 13 Noroeste 28 Oeste 0 -- -- 76
2019-08-08 13:00:00 20.8 9 Noroeste 24 Noroeste 0 -- -- 78
2019-08-08 12:00:00 20 10 Norte 24 Norte 0 -- -- 77
2019-08-08 11:00:00 19.8 12 Noroeste 27 Noroeste 0 -- -- 78
2019-08-08 10:00:00 18.9 6 Noroeste 20 Noroeste 0 -- -- 82
2019-08-08 09:00:00 17.8 6 Norte 15 Noroeste 0 -- -- 87
2019-08-08 08:00:00 17.3 7 Norte 20 Noroeste 0 -- -- 89
2019-08-08 07:00:00 17.3 15 Noroeste 22 Norte 0 -- -- 86
2019-08-08 06:00:00 17.1 14 Noroeste 25 Noroeste 0 -- -- 86
2019-08-08 05:00:00 17.2 7 Norte 22 Noroeste 0 -- -- 84
2019-08-08 04:00:00 17.2 9 Noroeste 17 Norte 0 -- -- 85
2019-08-08 03:00:00 16.1 5 Oeste 13 Norte 0 -- -- 88
2019-08-08 02:00:00 16.5 6 Norte 15 Noroeste 0 -- -- 87
2019-08-08 01:00:00 16.8 13 Noroeste 22 Noroeste 0 -- -- 86
2019-08-08 00:00:00 16.7 10 Noroeste 19 Noroeste 0 -- -- 86
2019-08-07 23:00:00 17.9 9 Norte 23 Noroeste 0 -- -- 82
2019-08-07 22:00:00 19.1 9 Norte 18 Norte 0 -- -- 71
2019-08-07 21:00:00 19.9 5 Norte 24 Norte 0 -- -- 65
2019-08-07 20:00:00 20.2 17 Norte 38 Noroeste 0 -- -- 65
2019-08-07 19:00:00 21 16 Norte 32 Noroeste 0.2 -- -- 63
2019-08-07 18:00:00 20.8 11 Norte 39 Norte 0 -- -- 63
2019-08-07 17:00:00 23.8 13 Noroeste 29 Noroeste 0 -- -- 49
2019-08-07 16:00:00 24.4 12 Norte 27 Norte 0 -- -- 51
2019-08-07 15:00:00 24.4 12 Noroeste 24 Noroeste 0 -- -- 50
2019-08-07 14:00:00 23.9 5 Norte 18 Noroeste 0 -- -- 53
2019-08-07 13:00:00 23.6 7 Sudoeste 18 Sur 0 -- -- 53
2019-08-07 12:00:00 21.6 8 Sudoeste 14 Sur 0 -- -- 61
2019-08-07 11:00:00 19.6 6 Sudoeste 13 Sudoeste 0 -- -- 72
2019-08-07 10:00:00 17.5 4 Sudoeste 11 Sur 0 -- -- 83
2019-08-07 09:00:00 16.1 5 Sudeste 10 Sudeste 0 -- -- 91
2019-08-07 08:00:00 14.3 0 Calma 6 Este 0 -- -- 94
2019-08-07 07:00:00 14.5 3 Este 6 Sudeste 0 -- -- 95
2019-08-07 06:00:00 14.6 0 Calma 6 Sudeste 0 -- -- 93
2019-08-07 05:00:00 15.1 2 Noroeste 10 Sudeste 0 -- -- 92
2019-08-07 04:00:00 15.7 5 Sudoeste 10 Sur 0 -- -- 92
2019-08-07 03:00:00 15.7 2 Sur 12 Sudeste 0 -- -- 92
2019-08-07 02:00:00 15.6 4 Sur 15 Sur 0 -- -- 93
2019-08-07 01:00:00 15.7 9 Sur 21 Sudeste 0 -- -- 93
2019-08-07 00:00:00 15.7 14 Sur 36 Sudeste 0 -- -- 93
2019-08-06 23:00:00 16 10 Sudeste 32 Sudeste 0 -- -- 90
2019-08-06 22:00:00 16.6 17 Sur 31 Sudeste 0 -- -- 86
2019-08-06 21:00:00 17.3 18 Sur 32 Sudeste 0 -- -- 85
2019-08-06 20:00:00 19 19 Sur 35 Sudeste 0 -- -- 81
2019-08-06 19:00:00 21.7 19 Sur 36 Sudeste 0 -- -- 71
2019-08-06 18:00:00 24.4 17 Sudeste 31 Sur 0 -- -- 61
2019-08-06 17:00:00 29 9 Noroeste 24 Noroeste 0 -- -- 34
2019-08-06 16:00:00 28.8 11 Noroeste 28 Noroeste 0 -- -- 35
2019-08-06 15:00:00 29 12 Noroeste 24 Sudoeste 0 -- -- 37
2019-08-06 14:00:00 27.6 9 Noroeste 26 Oeste 0 -- -- 38
2019-08-06 13:00:00 26 8 Norte 18 Norte 0 -- -- 44
2019-08-06 12:00:00 22.5 3 Norte 9 Norte 0 -- -- 54
2019-08-06 11:00:00 19.8 3 Norte 12 Noroeste 0 -- -- 67
2019-08-06 10:00:00 16.4 0 Calma 8 Sudeste 0 -- -- 86
2019-08-06 09:00:00 13.7 3 Sudeste 8 Este 0 -- -- 93
2019-08-06 08:00:00 11.2 6 Este 14 Este 0 -- -- 96
2019-08-06 07:00:00 10.8 4 Este 11 Este 0 -- -- 96
2019-08-06 06:00:00 11.3 7 Este 12 Este 0 -- -- 95
2019-08-06 05:00:00 11.9 6 Este 11 Este 0 -- -- 94
2019-08-06 04:00:00 12.6 6 Este 10 Este 0 -- -- 93
2019-08-06 03:00:00 13.7 2 Este 11 Sudeste 0 -- -- 89
2019-08-06 02:00:00 15.1 3 Sudeste 13 Sudeste 0 -- -- 87
2019-08-06 01:00:00 15.6 8 Sur 19 Sudeste 0 -- -- 88
2019-08-06 00:00:00 15.9 9 Sudeste 28 Sudeste 0 -- -- 89
2019-08-05 23:00:00 16.8 13 Sur 25 Sur 0 -- -- 84
2019-08-05 22:00:00 18.1 9 Sur 23 Sudeste 0 -- -- 79
2019-08-05 21:00:00 19.9 12 Sur 30 Sudeste 0 -- -- 74
2019-08-05 20:00:00 21.7 18 Sur 38 Sur 0 -- -- 68
2019-08-05 19:00:00 23.9 19 Sudeste 37 Sur 0 -- -- 62
2019-08-05 18:00:00 25.9 18 Sur 39 Sudeste 0 -- -- 59
2019-08-05 17:00:00 27.6 17 Sur 34 Sur 0 -- -- 53
2019-08-05 16:00:00 29.4 10 Sudoeste 26 Oeste 0 -- -- 38
2019-08-05 15:00:00 28.2 6 Sudoeste 18 Sur 0 -- -- 43
2019-08-05 14:00:00 26.3 6 Nordeste 16 Sur 0 -- -- 51
2019-08-05 13:00:00 23.8 5 Sur 16 Sudoeste 0 -- -- 53
2019-08-05 12:00:00 21.6 7 Sudoeste 15 Sur 0 -- -- 63
2019-08-05 11:00:00 19.4 6 Sur 16 Sur 0 -- -- 75
2019-08-05 10:00:00 16.7 7 Sur 12 Sur 0 -- -- 86
2019-08-05 09:00:00 12.9 4 Este 12 Este 0 -- -- 98
2019-08-05 08:00:00 10.7 5 Este 12 Este 0 -- -- 98
2019-08-05 07:00:00 10.6 5 Este 11 Este 0 -- -- 98
2019-08-05 06:00:00 10.8 6 Este 11 Este 0 -- -- 97
2019-08-05 05:00:00 11.3 8 Este 12 Este 0 -- -- 95
2019-08-05 04:00:00 11.9 8 Este 12 Este 0 -- -- 94
2019-08-05 03:00:00 14.2 6 Sudeste 16 Sur 0 -- -- 93
2019-08-05 02:00:00 14.5 6 Sur 19 Sur 0 -- -- 92
2019-08-05 01:00:00 15 12 Sur 21 Sur 0 -- -- 91
2019-08-05 00:00:00 15.4 11 Sur 26 Sudeste 0 -- -- 90
2019-08-04 23:00:00 15.4 13 Sur 28 Sudeste 0 -- -- 92
2019-08-04 22:00:00 15.7 15 Sur 37 Sudeste 0 -- -- 90
2019-08-04 21:00:00 16.9 18 Sur 41 Sur 0 -- -- 85
2019-08-04 20:00:00 19.1 20 Sur 44 Sudeste 0 -- -- 79
2019-08-04 19:00:00 22 24 Sur 43 Sudeste 0 -- -- 70
2019-08-04 18:00:00 25 17 Sudeste 35 Sudeste 0 -- -- 61
2019-08-04 17:00:00 27.9 15 Sudeste 36 Sudeste 0 -- -- 52
2019-08-04 16:00:00 29 4 Nordeste 17 Norte 0 -- -- 41
2019-08-04 15:00:00 28.1 7 Noroeste 16 Noroeste 0 -- -- 45
2019-08-04 14:00:00 26 3 Norte 13 Sudeste 0 -- -- 52
2019-08-04 13:00:00 22.9 4 Nordeste 13 Sudoeste 0 -- -- 59
2019-08-04 12:00:00 20.5 8 Sudoeste 17 Sur 0 -- -- 66
2019-08-04 11:00:00 18.4 10 Sur 24 Sudeste 0 -- -- 74
2019-08-04 10:00:00 16.6 13 Sur 23 Sudeste 0 -- -- 82
2019-08-04 09:00:00 15.1 10 Sur 20 Sur 0 -- -- 88
2019-08-04 08:00:00 12.3 5 Sur 17 Sur 0 -- -- 95
2019-08-04 07:00:00 11.2 0 Calma 12 Este 0 -- -- 93
2019-08-04 06:00:00 12.1 5 Este 9 Norte 0 -- -- 93
2019-08-04 05:00:00 13.1 0 Calma 6 Sudeste 0 -- -- 90
2019-08-04 04:00:00 13.9 0 Calma 9 Sudeste 0 -- -- 88
2019-08-04 03:00:00 15.1 4 Sur 17 Sudeste 0 -- -- 85
2019-08-04 02:00:00 15.6 9 Sur 19 Sudeste 0 -- -- 84
2019-08-04 01:00:00 16.1 9 Sudeste 23 Sur 0 -- -- 84
2019-08-04 00:00:00 16.8 12 Sur 27 Sudeste 0 -- -- 82
2019-08-03 23:00:00 17.6 13 Sudeste 27 Sudeste 0 -- -- 81
2019-08-03 22:00:00 18.4 15 Sur 27 Sudeste 0 -- -- 81
2019-08-03 21:00:00 21 8 Sur 28 Sur 0 -- -- 76
2019-08-03 20:00:00 24 17 Sur 33 Sudeste 0 -- -- 67
2019-08-03 19:00:00 27.1 12 Sudeste 31 Sur 0 -- -- 57
2019-08-03 18:00:00 28.4 13 Sudeste 31 Sur 0 -- -- 53
2019-08-03 17:00:00 29.5 13 Sudeste 26 Sudeste 0 -- -- 45
2019-08-03 16:00:00 30.7 8 Sudeste 21 Sudeste 0 -- -- 31
2019-08-03 15:00:00 29.3 6 Nordeste 18 Nordeste 0 -- -- 37
2019-08-03 14:00:00 29.1 5 Sudoeste 14 Sur 0 -- -- 34
2019-08-03 13:00:00 27.4 4 Sudoeste 11 Oeste 0 -- -- 40
2019-08-03 12:00:00 24.9 3 Oeste 7 Sudoeste 0 -- -- 42
2019-08-03 11:00:00 21.2 2 Noroeste 9 Noroeste 0 -- -- 55
2019-08-03 10:00:00 17.3 5 Noroeste 7 Noroeste 0 -- -- 67
2019-08-03 09:00:00 13 3 Sudeste 8 Este 0 -- -- 84
2019-08-03 08:00:00 9.8 6 Este 9 Este 0 -- -- 94
2019-08-03 07:00:00 9.7 0 Calma 11 Sudeste 0 -- -- 92
2019-08-03 06:00:00 10.6 7 Este 12 Este 0 -- -- 93
2019-08-03 05:00:00 11.5 8 Este 13 Este 0 -- -- 93
2019-08-03 04:00:00 12.3 3 Este 9 Este 0 -- -- 95
2019-08-03 03:00:00 12.5 8 Este 14 Este 0 -- -- 92
2019-08-03 02:00:00 14.1 2 Sudeste 13 Este 0 -- -- 88
2019-08-03 01:00:00 15.5 2 Este 13 Sur 0 -- -- 87
2019-08-03 00:00:00 16.7 6 Sudeste 20 Sur 0 -- -- 84
2019-08-02 23:00:00 18 9 Sur 20 Sudeste 0 -- -- 78
2019-08-02 22:00:00 19.5 11 Sur 21 Sudeste 0 -- -- 72
2019-08-02 21:00:00 21.9 10 Sur 31 Sur 0 -- -- 65
2019-08-02 20:00:00 24.6 14 Sur 31 Sudeste 0 -- -- 55
2019-08-02 19:00:00 25.8 14 Sudeste 32 Este 0 -- -- 51
2019-08-02 18:00:00 27.1 18 Sudeste 33 Sur 0 -- -- 49
2019-08-02 17:00:00 27.7 15 Sudeste 31 Sur 0 -- -- 45
2019-08-02 16:00:00 27.8 13 Sur 25 Sudeste 0 -- -- 42
2019-08-02 15:00:00 26.7 5 Noroeste 14 Sudoeste 0 -- -- 41
2019-08-02 14:00:00 25.2 6 Sudoeste 20 Sudoeste 0 -- -- 44
2019-08-02 13:00:00 22.5 9 Sudoeste 18 Sudoeste 0 -- -- 55
2019-08-02 12:00:00 19.8 8 Sur 16 Sur 0 -- -- 62
2019-08-02 11:00:00 17 6 Sur 15 Sudeste 0 -- -- 76
2019-08-02 10:00:00 14.1 6 Sudeste 17 Sudeste 0 -- -- 88
2019-08-02 09:00:00 12.6 8 Sudeste 15 Sur 0 -- -- 93
2019-08-02 08:00:00 11.5 5 Este 13 Este 0 -- -- 93
2019-08-02 07:00:00 12.6 6 Sur 13 Sudoeste 0 -- -- 92
2019-08-02 06:00:00 12.6 6 Sur 13 Sur 0 -- -- 94
2019-08-02 05:00:00 12.3 8 Sur 14 Sur 0 -- -- 95
2019-08-02 04:00:00 12.2 10 Sur 17 Sudeste 0 -- -- 93
2019-08-02 03:00:00 12.7 9 Sur 18 Sur 0 -- -- 92
2019-08-02 02:00:00 13.3 9 Sur 22 Sudeste 0 -- -- 90
2019-08-02 01:00:00 14 14 Sur 29 Sudeste 0 -- -- 89
2019-08-02 00:00:00 14.3 15 Sur 28 Sur 0 -- -- 89
2019-08-01 23:00:00 14.2 15 Sur 34 Sudeste 0 -- -- 90
2019-08-01 22:00:00 14.8 15 Sur 36 Sudeste 0 -- -- 88
2019-08-01 21:00:00 16 18 Sur 40 Sur 0 -- -- 83
2019-08-01 20:00:00 17.5 21 Sudeste 45 Sudeste 0 -- -- 78
2019-08-01 19:00:00 19.5 21 Sur 37 Sudeste 0 -- -- 73
2019-08-01 18:00:00 21 16 Sur 38 Sur 0 -- -- 69
2019-08-01 17:00:00 22.1 15 Sur 28 Sur 0 -- -- 66
2019-08-01 16:00:00 21.6 15 Sur 33 Sur 0 -- -- 66
2019-08-01 15:00:00 21.1 15 Sudeste 30 Sudeste 0 -- -- 68
2019-08-01 14:00:00 20 14 Sur 27 Sudeste 0 -- -- 73
2019-08-01 13:00:00 18.8 13 Sur 28 Sudeste 0 -- -- 75
2019-08-01 12:00:00 18.1 14 Sudeste 30 Sudeste 0 -- -- 75
2019-08-01 11:00:00 16.6 14 Sudeste 28 Sudeste 0 -- -- 79
2019-08-01 10:00:00 15.1 10 Sur 24 Sudeste 0 -- -- 83
2019-08-01 09:00:00 13.5 9 Sur 18 Sur 0 -- -- 85
2019-08-01 08:00:00 11.7 8 Sudeste 21 Sudeste 0 -- -- 91
2019-08-01 07:00:00 11.5 7 Sudeste 17 Sur 0 -- -- 89
2019-08-01 06:00:00 12 6 Sudeste 14 Sudeste 0 -- -- 90
2019-08-01 05:00:00 12.1 9 Sur 19 Sur 0 -- -- 92
2019-08-01 04:00:00 12 7 Sur 20 Sudeste 0 -- -- 91
2019-08-01 03:00:00 12.2 11 Sur 23 Sudeste 0 -- -- 91
2019-08-01 02:00:00 12.5 12 Sur 23 Sudeste 0 -- -- 89
2019-08-01 01:00:00 13.1 14 Sur 23 Sudeste 0 -- -- 89
2019-08-01 00:00:00 13.5 10 Sur 21 Sur 0 -- -- 89
2019-07-31 23:00:00 14.1 9 Sudeste 23 Sur 0 -- -- 87
2019-07-31 22:00:00 14.7 10 Sur 24 Sur 0 -- -- 86
2019-07-31 21:00:00 16.3 12 Sudeste 24 Sudeste 0 -- -- 78
2019-07-31 20:00:00 18.2 13 Sudeste 28 Sur 0 -- -- 69
2019-07-31 19:00:00 20.5 10 Sudeste 30 Sur 0 -- -- 61
2019-07-31 18:00:00 21.1 11 Sudeste 32 Sudeste 0 -- -- 57
2019-07-31 17:00:00 22.4 15 Sudeste 30 Sur 0 -- -- 51
2019-07-31 16:00:00 21.5 14 Sur 31 Sudeste 0 -- -- 52
2019-07-31 15:00:00 19.9 16 Sudeste 39 Sudeste 0 -- -- 55
2019-07-31 14:00:00 19.9 15 Sudeste 29 Sur 0 -- -- 54
2019-07-31 13:00:00 18.7 17 Sudeste 28 Este 0 -- -- 59
2019-07-31 12:00:00 17 12 Sur 26 Sur 0 -- -- 60
2019-07-31 11:00:00 15 12 Sudeste 24 Sur 0 -- -- 67
2019-07-31 10:00:00 13.2 12 Sur 23 Sudeste 0 -- -- 74
2019-07-31 09:00:00 10.8 5 Sudeste 11 Sudeste 0 -- -- 88
2019-07-31 08:00:00 8.4 6 Este 9 Este 0 -- -- 92
2019-07-31 07:00:00 9.6 5 Sudeste 12 Este 0 -- -- 91
2019-07-31 06:00:00 10 6 Sudeste 14 Sur 0 -- -- 92
2019-07-31 05:00:00 10.6 4 Sudeste 13 Sudeste 0 -- -- 91
2019-07-31 04:00:00 10.4 6 Sur 14 Sur 0 -- -- 93
2019-07-31 03:00:00 10.4 7 Sudeste 24 Sudeste 0 -- -- 92
2019-07-31 02:00:00 10.5 9 Sudeste 24 Sudeste 0 -- -- 91
2019-07-31 01:00:00 10.5 9 Sudeste 23 Sur 0 -- -- 91
2019-07-31 00:00:00 10.7 7 Sudeste 22 Sudeste 0 -- -- 90
2019-07-30 23:00:00 11.2 10 Sur 23 Sudeste 0 -- -- 89
2019-07-30 22:00:00 11.6 10 Sudeste 24 Sudeste 0 -- -- 86
2019-07-30 21:00:00 13.1 11 Sudeste 31 Sudeste 0 -- -- 79
2019-07-30 20:00:00 15.2 11 Sudeste 28 Sur 0 -- -- 71
2019-07-30 19:00:00 16.3 15 Sudeste 36 Sudeste 0 -- -- 68
2019-07-30 18:00:00 17 17 Sudeste 38 Sudeste 0 -- -- 65
2019-07-30 17:00:00 17.8 18 Sudeste 40 Sur 0 -- -- 62
2019-07-30 16:00:00 19 18 Sur 32 Sudeste 0 -- -- 55
2019-07-30 15:00:00 18.7 11 Sur 27 Sudeste 0 -- -- 53
2019-07-30 14:00:00 18.3 12 Sudeste 28 Sur 0 -- -- 52
2019-07-30 13:00:00 17.6 14 Sur 25 Sudoeste 0 -- -- 56
2019-07-30 12:00:00 15.7 4 Sur 15 Sudeste 0 -- -- 62
2019-07-30 11:00:00 15.1 6 Sudeste 19 Sudeste 0 -- -- 66
2019-07-30 10:00:00 12.9 5 Sur 14 Sudeste 0 -- -- 78
2019-07-30 09:00:00 11.7 5 Sur 13 Sudeste 0 -- -- 87
2019-07-30 08:00:00 10.4 3 Sudeste 13 Sur 0 -- -- 92
2019-07-30 07:00:00 10.4 6 Sudeste 14 Sur 0 -- -- 90
2019-07-30 06:00:00 11.5 8 Sur 18 Sur 0 -- -- 88
2019-07-30 05:00:00 11.9 6 Sudeste 17 Sur 0 -- -- 90
2019-07-30 04:00:00 12.2 9 Sudeste 19 Sudeste 0 -- -- 89
2019-07-30 03:00:00 12.8 7 Sur 15 Sudeste 0 -- -- 90
2019-07-30 02:00:00 13.1 6 Sur 14 Sur 0 -- -- 89
2019-07-30 01:00:00 13 6 Sudeste 22 Sur 0 -- -- 90
2019-07-30 00:00:00 12.7 8 Sur 21 Sur 0 -- -- 91
2019-07-29 23:00:00 13 10 Sur 28 Sudeste 0 -- -- 90
2019-07-29 22:00:00 13.3 12 Sudeste 33 Sur 0 -- -- 90
2019-07-29 21:00:00 14.2 17 Sur 40 Sur 0 -- -- 86
2019-07-29 20:00:00 15.8 22 Sur 45 Sudeste 0 -- -- 82
2019-07-29 19:00:00 17.7 23 Sur 44 Sur 0 -- -- 75
2019-07-29 18:00:00 25.3 10 Norte 30 Norte 0 -- -- 36
2019-07-29 17:00:00 25.2 14 Norte 31 Norte 0 -- -- 35
2019-07-29 16:00:00 24.9 10 Norte 26 Norte 0 -- -- 39
2019-07-29 15:00:00 24.2 9 Noroeste 28 Norte 0 -- -- 46
2019-07-29 14:00:00 22.7 11 Norte 30 Noroeste 0 -- -- 51
2019-07-29 13:00:00 22.2 15 Noroeste 31 Norte 0 -- -- 53
2019-07-29 12:00:00 20.8 11 Noroeste 26 Noroeste 0 -- -- 59
2019-07-29 11:00:00 18.1 3 Noroeste 13 Oeste 0 -- -- 63
2019-07-29 10:00:00 15.2 4 Noroeste 8 Noroeste 0 -- -- 67
2019-07-29 09:00:00 11.6 3 Sudeste 8 Este 0 -- -- 89
2019-07-29 08:00:00 7.9 5 Sudeste 16 Este 0 -- -- 93
2019-07-29 07:00:00 8 3 Este 13 Este 0 -- -- 93
2019-07-29 06:00:00 8.2 0 Calma 8 Este 0 -- -- 91
2019-07-29 05:00:00 9.1 7 Este 11 Este 0 -- -- 93
2019-07-29 04:00:00 9.5 5 Este 10 Este 0 -- -- 92
2019-07-29 03:00:00 10 0 Calma 2 Sudeste 0 -- -- 88
2019-07-29 02:00:00 10.9 0 Calma 13 Este 0 -- -- 84
2019-07-29 01:00:00 12.1 2 Este 5 Este 0 -- -- 80
2019-07-29 00:00:00 13.8 6 Este 10 Este 0 -- -- 76
2019-07-28 23:00:00 15 0 Calma 4 Oeste 0 -- -- 65
2019-07-28 22:00:00 17.5 0 Calma 10 Norte 0 -- -- 63
2019-07-28 21:00:00 21.3 6 Norte 15 Noroeste 0 -- -- 43
2019-07-28 20:00:00 22.5 8 Noroeste 19 Noroeste 0 -- -- 40
2019-07-28 19:00:00 23.5 7 Noroeste 22 Norte 0 -- -- 40
2019-07-28 18:00:00 23.1 10 Noroeste 21 Noroeste 0 -- -- 42
2019-07-28 17:00:00 22.6 8 Oeste 19 Sudoeste 0 -- -- 46
2019-07-28 16:00:00 21.7 6 Norte 22 Norte 0 -- -- 46
2019-07-28 15:00:00 20.4 9 Norte 23 Oeste 0 -- -- 52
2019-07-28 14:00:00 18.9 8 Oeste 21 Oeste 0 -- -- 57
2019-07-28 13:00:00 17.2 8 Oeste 22 Norte 0 -- -- 64
2019-07-28 12:00:00 15.4 4 Nordeste 18 Noroeste 0 -- -- 76
2019-07-28 11:00:00 13.3 5 Norte 14 Norte 0 -- -- 84
2019-07-28 10:00:00 12 8 Norte 12 Norte 0 -- -- 89
2019-07-28 09:00:00 10.5 3 Sur 6 Sur 0 -- -- 96
2019-07-28 08:00:00 7.5 4 Sudeste 10 Este 0 -- -- 99
2019-07-28 07:00:00 6.7 3 Este 12 Este 0 -- -- 98
2019-07-28 06:00:00 7.1 8 Este 12 Este 0 -- -- 97
2019-07-28 05:00:00 7.3 0 Calma 9 Este 0 -- -- 96
2019-07-28 04:00:00 8 0 Calma 8 Sudeste 0 -- -- 96
2019-07-28 03:00:00 8.8 2 Este 8 Sudeste 0 -- -- 95
2019-07-28 02:00:00 9.5 2 Nordeste 9 Este 0 -- -- 94
2019-07-28 01:00:00 10.4 2 Este 15 Sur 0 -- -- 91
2019-07-28 00:00:00 11.2 8 Sudeste 20 Sudeste 0 -- -- 90
2019-07-27 23:00:00 12 9 Sudeste 22 Sudeste 0 -- -- 89
2019-07-26 12:00:00 -- -- -- -- -- -- -- -- --
2019-07-26 11:00:00 15.7 10 Sur 36 Sur 0 -- -- 86
2019-07-26 10:00:00 17.1 15 Sur 27 Sur 0 -- -- 80
2019-07-26 09:00:00 16.5 7 Sudeste 19 Sur 0 -- -- 86
2019-07-26 08:00:00 15.7 4 Sudeste 20 Sur 0 -- -- 90
2019-07-26 07:00:00 15.9 12 Sur 21 Sur 0 -- -- 91
2019-07-26 06:00:00 16.3 8 Sur 17 Sur 0 -- -- 91
2019-07-26 05:00:00 16.3 9 Sudeste 29 Sur 0 -- -- 91
2019-07-26 04:00:00 16.5 14 Sur 29 Sudeste 0 -- -- 91
2019-07-26 03:00:00 16.7 11 Sur 28 Sudeste 0 -- -- 90
2019-07-26 02:00:00 16.7 17 Sur 29 Sudeste 0 -- -- 91
2019-07-26 01:00:00 17 14 Sur 24 Sudeste 0 -- -- 86
2019-07-26 00:00:00 17 13 Sur 23 Sur 0 -- -- 83
2019-07-25 23:00:00 17.3 11 Sur 24 Sudeste 0 -- -- 80
2019-07-25 22:00:00 18 12 Sur 37 Sur 0 -- -- 78
2019-07-25 21:00:00 19.7 25 Sur 44 Sudeste 0 -- -- 69
2019-07-25 20:00:00 28.9 8 Norte 26 Sur 0 -- -- 46
2019-07-25 19:00:00 30.7 15 Norte 33 Noroeste 0 -- -- 28
2019-07-25 18:00:00 31.7 14 Norte 39 Norte 0 -- -- 25
2019-07-25 17:00:00 31.6 18 Noroeste 41 Noroeste 0 -- -- 26
2019-07-25 16:00:00 31.7 17 Noroeste 44 Noroeste 0 -- -- 29
2019-07-25 15:00:00 30.1 17 Noroeste 37 Norte 0 -- -- 32
2019-07-25 14:00:00 29.3 17 Noroeste 32 Oeste 0 -- -- 34
2019-07-25 13:00:00 28.7 14 Noroeste 29 Sudoeste 0 -- -- 37
2019-07-25 12:00:00 26.5 13 Noroeste 29 Noroeste 0 -- -- 42
2019-07-25 11:00:00 24.7 10 Oeste 22 Noroeste 0 -- -- 48
2019-07-25 10:00:00 21.9 4 Noroeste 8 Sudoeste 0 -- -- 63
2019-07-25 09:00:00 18.1 0 Calma 10 Este 0 -- -- 77
2019-07-25 08:00:00 15.1 8 Este 11 Nordeste 0 -- -- 83
2019-07-25 07:00:00 14.9 3 Este 12 Este 0 -- -- 83
2019-07-25 06:00:00 14.9 5 Este 17 Este 0 -- -- 83
2019-07-25 05:00:00 14.9 2 Este 10 Este 0 -- -- 85
2019-07-25 04:00:00 15.6 0 Calma 15 Este 0 -- -- 80
2019-07-25 03:00:00 16.9 10 Este 14 Este 0 -- -- 77
2019-07-25 02:00:00 18.2 9 Este 13 Este 0 -- -- 73
2019-07-25 01:00:00 19.1 9 Este 13 Este 0 -- -- 70
2019-07-25 00:00:00 20.6 0 Calma 13 Este 0 -- -- 66
2019-07-24 23:00:00 22.8 2 Nordeste 10 Este 0 -- -- 61
2019-07-24 22:00:00 26 0 Calma 6 Norte 0 -- -- 57
2019-07-24 21:00:00 29.7 3 Noroeste 20 Norte 0 -- -- 42
2019-07-24 20:00:00 31.6 9 Noroeste 25 Oeste 0 -- -- 33
2019-07-24 19:00:00 32.6 13 Noroeste 27 Noroeste 0 -- -- 31
2019-07-24 18:00:00 33.1 15 Noroeste 31 Norte 0 -- -- 31
2019-07-24 17:00:00 32.7 16 Noroeste 32 Norte 0 -- -- 32
2019-07-24 16:00:00 32 13 Noroeste 35 Oeste 0 -- -- 32
2019-07-24 15:00:00 31 13 Oeste 36 Oeste 0 -- -- 35
2019-07-24 14:00:00 29.9 13 Oeste 30 Sudoeste 0 -- -- 39
2019-07-24 13:00:00 28 11 Noroeste 22 Noroeste 0 -- -- 45
2019-07-24 12:00:00 26.5 10 Oeste 19 Oeste 0 -- -- 48
2019-07-24 11:00:00 24.2 6 Oeste 10 Sudoeste 0 -- -- 54
2019-07-24 10:00:00 20.8 2 Sur 6 Sudoeste 0 -- -- 72
2019-07-24 09:00:00 17.3 0 Calma 6 Sudeste 0 -- -- 84
2019-07-24 08:00:00 14.1 4 Sudeste 11 Este 0 -- -- 90
2019-07-24 07:00:00 13.9 3 Este 8 Este 0 -- -- 91
2019-07-24 06:00:00 14.9 2 Nordeste 13 Este 0 -- -- 87
2019-07-24 05:00:00 15.8 5 Este 9 Este 0 -- -- 86
2019-07-24 04:00:00 17.1 6 Sudeste 9 Este 0 -- -- 83
2019-07-24 03:00:00 18.8 5 Sudoeste 14 Este 0 -- -- 78
2019-07-24 02:00:00 18.8 8 Este 13 Este 0 -- -- 76
2019-07-24 01:00:00 19.9 4 Sudeste 29 Oeste 0 -- -- 73
2019-07-24 00:00:00 18.5 5 Sur 15 Sudoeste 0 -- -- 80
2019-07-23 23:00:00 19.8 2 Sudeste 41 Sudeste 0 -- -- 72
2019-07-23 22:00:00 21 13 Sur 31 Oeste 0.6 -- -- 68
2019-07-23 21:00:00 25.5 9 Sur 23 Sur 0 -- -- 47
2019-07-23 20:00:00 27 18 Sur 41 Sur 0 -- -- 43
2019-07-23 19:00:00 32 9 Norte 21 Norte 0 -- -- 33
2019-07-23 18:00:00 32.4 13 Norte 29 Norte 0 -- -- 33
2019-07-23 17:00:00 32.1 13 Noroeste 26 Norte 0 -- -- 31
2019-07-23 16:00:00 31.4 12 Noroeste 35 Noroeste 0 -- -- 37
2019-07-23 15:00:00 30.1 17 Oeste 43 Oeste 0 -- -- 41
2019-07-23 14:00:00 29.3 19 Oeste 35 Sudoeste 0 -- -- 41
2019-07-23 13:00:00 28.4 10 Oeste 21 Sudoeste 0 -- -- 45
2019-07-23 12:00:00 25.4 5 Norte 19 Norte 0 -- -- 54
2019-07-23 11:00:00 22 4 Norte 15 Norte 0 -- -- 66
2019-07-23 10:00:00 19.6 2 Nordeste 7 Noroeste 0 -- -- 82
2019-07-23 09:00:00 16.7 3 Sudoeste 14 Noroeste 0 -- -- 86
2019-07-23 08:00:00 14.2 3 Nordeste 10 Este 0 -- -- 96
2019-07-23 07:00:00 13.6 0 Calma 6 Este 0 -- -- 94
2019-07-23 06:00:00 14.1 5 Este 12 Este 0 -- -- 95
2019-07-23 05:00:00 14.6 3 Sudeste 12 Este 0 -- -- 93
2019-07-23 04:00:00 15.1 8 Este 14 Este 0 -- -- 93
2019-07-23 03:00:00 15.5 0 Calma 10 Este 0 -- -- 92
2019-07-23 02:00:00 16.1 4 Este 12 Este 0 -- -- 90
2019-07-23 01:00:00 16.9 2 Nordeste 8 Sudeste 0 -- -- 89
2019-07-23 00:00:00 18.9 4 Este 20 Norte 0 -- -- 81
2019-07-22 23:00:00 19.8 6 Nordeste 27 Nordeste 0.4 -- -- 75
2019-07-22 22:00:00 19.5 5 Nordeste 39 Norte 3 -- -- 80
2019-07-22 21:00:00 21.3 8 Norte 16 Noroeste 0 -- -- 86
2019-07-22 20:00:00 22.5 14 Sudeste 29 Sudeste 1 -- -- 76
2019-07-22 19:00:00 23.7 2 Sudeste 22 Noroeste 2 -- -- 77
2019-07-22 18:00:00 32.2 10 Sudoeste 18 Sudoeste 0 -- -- 37
2019-07-22 17:00:00 34 6 Sudoeste 17 Sudoeste 0 -- -- 32
2019-07-22 16:00:00 33.7 9 Sudoeste 22 Sudoeste 0 -- -- 34
2019-07-22 15:00:00 32.4 7 Sudoeste 15 Sur 0 -- -- 40
2019-07-22 14:00:00 30.3 6 Sudeste 15 Sur 0 -- -- 43
2019-07-22 13:00:00 27.9 5 Sudoeste 12 Sudoeste 0 -- -- 50
2019-07-22 12:00:00 25.1 6 Sudoeste 12 Sudoeste 0 -- -- 62
2019-07-22 11:00:00 21.9 5 Sudoeste 12 Sur 0 -- -- 75
2019-07-22 10:00:00 19.8 4 Sur 8 Sur 0 -- -- 80
2019-07-22 09:00:00 16.7 4 Este 14 Este 0 -- -- 89
2019-07-22 08:00:00 14.6 9 Este 13 Este 0 -- -- 92
2019-07-22 07:00:00 14.5 8 Este 14 Este 0 -- -- 91
2019-07-22 06:00:00 16.5 5 Sudeste 9 Sudeste 0 -- -- 92
2019-07-22 05:00:00 16.3 5 Sudeste 20 Sudeste 0 -- -- 93
2019-07-22 04:00:00 16.5 6 Sudeste 17 Sudeste 0 -- -- 90
2019-07-22 03:00:00 16.3 6 Sudeste 16 Sur 0 -- -- 92
2019-07-22 02:00:00 16.3 7 Sudeste 19 Sur 0 -- -- 91
2019-07-22 01:00:00 16.3 10 Sudeste 22 Sur 0 -- -- 92
2019-07-22 00:00:00 16.4 10 Sur 22 Sudeste 0 -- -- 92
2019-07-21 23:00:00 16.9 6 Sudeste 27 Sur 0 -- -- 89
2019-07-21 22:00:00 17.5 10 Sudeste 35 Sur 0 -- -- 87
2019-07-21 21:00:00 18.6 18 Sudeste 36 Sudeste 0 -- -- 84
2019-07-21 20:00:00 21.1 20 Sur 44 Sudeste 0 -- -- 76
2019-07-21 19:00:00 23.5 20 Sudeste 36 Este 0 -- -- 68
2019-07-21 18:00:00 28 17 Sudeste 35 Este 0 -- -- 56
2019-07-21 17:00:00 28.1 10 Sur 17 Sudoeste 0 -- -- 49
2019-07-21 16:00:00 26.5 9 Sudoeste 22 Sur 0 -- -- 55
2019-07-21 15:00:00 24.5 11 Sudoeste 29 Sudoeste 0 -- -- 61
2019-07-21 14:00:00 22.7 13 Sur 30 Sudeste 0 -- -- 68
2019-07-21 13:00:00 21.8 15 Sudeste 30 Sudeste 0 -- -- 70
2019-07-21 12:00:00 20.1 14 Sudeste 27 Sudeste 0 -- -- 75
2019-07-21 11:00:00 19 12 Sudeste 25 Sudeste 0 -- -- 77
2019-07-21 10:00:00 17.3 14 Sur 24 Sur 0 -- -- 83
2019-07-21 09:00:00 16.7 10 Sudeste 21 Sur 0 -- -- 86
2019-07-21 08:00:00 15.8 5 Sudeste 12 Sudeste 0 -- -- 89
2019-07-21 07:00:00 15.2 6 Sudeste 14 Sudeste 0 -- -- 93
2019-07-21 06:00:00 14.8 6 Sudeste 13 Sudeste 0 -- -- 95
2019-07-21 05:00:00 14.4 9 Sudeste 17 Sudeste 0 -- -- 95
2019-07-21 04:00:00 14.9 8 Sudeste 18 Sudeste 0 -- -- 93
2019-07-21 03:00:00 15.1 7 Sudeste 23 Sudeste 0 -- -- 93
2019-07-21 02:00:00 15.4 10 Sudeste 25 Sur 0 -- -- 92
2019-07-21 01:00:00 15.7 12 Sur 30 Sur 0 -- -- 91
2019-07-21 00:00:00 15.9 13 Sur 27 Sudeste 0 -- -- 89
2019-07-20 23:00:00 16 12 Sudeste 28 Sudeste 0 -- -- 89
2019-07-20 22:00:00 16.5 15 Sur 32 Sur 0 -- -- 86
2019-07-20 21:00:00 17.6 17 Sur 33 Sur 0 -- -- 83
2019-07-20 20:00:00 19.3 18 Sur 35 Sur 0 -- -- 78
2019-07-20 19:00:00 21.1 13 Sudeste 41 Sur 0 -- -- 73
2019-07-20 18:00:00 22.9 23 Sur 46 Sudeste 0 -- -- 67
2019-07-20 17:00:00 25.8 21 Sudeste 39 Sur 0 -- -- 58
2019-07-20 16:00:00 27.1 16 Sudeste 37 Sudeste 0 -- -- 54
2019-07-20 15:00:00 27.2 15 Sudeste 35 Sudeste 0 -- -- 51
2019-07-20 14:00:00 26.3 8 Sudeste 21 Sudoeste 0 -- -- 51
2019-07-20 13:00:00 24.8 9 Sur 20 Sur 0 -- -- 55
2019-07-20 12:00:00 23.2 9 Sudoeste 20 Sur 0 -- -- 59
2019-07-20 11:00:00 21.7 10 Sur 21 Sur 0 -- -- 63
2019-07-20 10:00:00 19.5 9 Sur 17 Sur 0 -- -- 72
2019-07-20 09:00:00 16.9 8 Sudeste 15 Sudeste 0 -- -- 86
2019-07-20 08:00:00 12.5 6 Este 12 Este 0 -- -- 91
2019-07-20 07:00:00 12.2 9 Este 17 Este 0 -- -- 91
2019-07-20 06:00:00 13.1 8 Este 12 Este 0 -- -- 89
2019-07-20 05:00:00 13.8 0 Calma 12 Este 0 -- -- 86
2019-07-20 04:00:00 14.6 2 Nordeste 11 Este -- -- -- 82
2019-07-20 03:00:00 15.6 2 Este 7 Sudeste 0 -- -- 77
2019-07-20 02:00:00 17.2 5 Sudeste 13 Sudeste 0 -- -- 71
2019-07-20 01:00:00 17.7 4 Este 13 Sudeste 0 -- -- 70
2019-07-20 00:00:00 19.1 9 Sur 24 Sur 0 -- -- 66
2019-07-19 23:00:00 19.9 12 Sur 34 Sur 0 -- -- 66
2019-07-19 22:00:00 21.4 19 Sur 36 Sudeste 0 -- -- 67
2019-07-19 21:00:00 26 13 Sur 30 Sudeste 0 -- -- 56
2019-07-19 20:00:00 30.2 12 Norte 25 Noroeste 0 -- -- 27
2019-07-19 19:00:00 31.6 11 Norte 32 Norte 0 -- -- 26
2019-07-19 18:00:00 31.6 13 Noroeste 30 Norte 0 -- -- 27
2019-07-19 17:00:00 31.9 11 Norte 31 Norte 0 -- -- 28
2019-07-19 16:00:00 31.4 12 Norte 32 Norte 0 -- -- 29
2019-07-19 15:00:00 30.4 9 Noroeste 28 Oeste 0 -- -- 31
2019-07-19 14:00:00 28.9 10 Noroeste 22 Norte 0 -- -- 35
2019-07-19 13:00:00 26.5 4 Noroeste 12 Norte 0 -- -- 41
2019-07-19 12:00:00 23.6 3 Noroeste 9 Noroeste 0 -- -- 41
2019-07-19 11:00:00 20.1 4 Noroeste 9 Noroeste 0 -- -- 60
2019-07-19 10:00:00 17.2 3 Noroeste 8 Noroeste 0 -- -- 80
2019-07-19 09:00:00 13.9 2 Sur 9 Este 0 -- -- 98
2019-07-19 08:00:00 11 6 Este 9 Este 0 -- -- 99
2019-07-19 07:00:00 10.3 2 Este 13 Este 0 -- -- 99
2019-07-19 06:00:00 10.2 10 Este 12 Este 0 -- -- 97
2019-07-19 05:00:00 10.7 5 Este 13 Este 0 -- -- 96
2019-07-19 04:00:00 11.5 5 Este 8 Este 0 -- -- 92
2019-07-19 03:00:00 12.4 0 Calma 12 Sudeste 0 -- -- 89
2019-07-19 02:00:00 13.5 6 Sudeste 15 Sur 0 -- -- 85
2019-07-19 01:00:00 14.1 6 Sur 18 Sudoeste 0 -- -- 87
2019-07-19 00:00:00 14.9 9 Sur 28 Sur 0 -- -- 88